sensor_id;sensor_type;location;lat;lon;timestamp;P1;durP1;ratioP1;P2;durP2;ratioP2
7485;SDS011;3784;54.098;9.998;2023-02-26T00:01:22;4.67;;;1.40;;
7485;SDS011;3784;54.098;9.998;2023-02-26T00:03:53;5.77;;;1.30;;
7485;SDS011;3784;54.098;9.998;2023-02-26T00:06:22;4.47;;;1.37;;
7485;SDS011;3784;54.098;9.998;2023-02-26T00:08:50;3.53;;;1.40;;
7485;SDS011;3784;54.098;9.998;2023-02-26T00:11:16;3.63;;;1.37;;
7485;SDS011;3784;54.098;9.998;2023-02-26T00:13:43;3.30;;;1.30;;
7485;SDS011;3784;54.098;9.998;2023-02-26T00:18:59;2.87;;;1.70;;
7485;SDS011;3784;54.098;9.998;2023-02-26T00:21:27;2.07;;;1.27;;
7485;SDS011;3784;54.098;9.998;2023-02-26T00:23:54;3.27;;;1.40;;
7485;SDS011;3784;54.098;9.998;2023-02-26T00:26:22;5.03;;;1.70;;
7485;SDS011;3784;54.098;9.998;2023-02-26T00:28:49;2.80;;;1.20;;
7485;SDS011;3784;54.098;9.998;2023-02-26T00:31:16;3.83;;;1.80;;
7485;SDS011;3784;54.098;9.998;2023-02-26T00:33:44;4.90;;;1.90;;
7485;SDS011;3784;54.098;9.998;2023-02-26T00:38:53;3.33;;;1.50;;
7485;SDS011;3784;54.098;9.998;2023-02-26T00:41:27;1.40;;;1.30;;
7485;SDS011;3784;54.098;9.998;2023-02-26T00:43:54;3.97;;;1.30;;
7485;SDS011;3784;54.098;9.998;2023-02-26T00:49:17;1.33;;;1.10;;
7485;SDS011;3784;54.098;9.998;2023-02-26T00:54:26;3.13;;;1.40;;
7485;SDS011;3784;54.098;9.998;2023-02-26T00:56:57;3.70;;;1.20;;
7485;SDS011;3784;54.098;9.998;2023-02-26T00:59:26;2.43;;;1.33;;
7485;SDS011;3784;54.098;9.998;2023-02-26T01:01:53;3.20;;;1.20;;
7485;SDS011;3784;54.098;9.998;2023-02-26T01:04:20;4.83;;;1.80;;
7485;SDS011;3784;54.098;9.998;2023-02-26T01:06:49;2.80;;;1.37;;
7485;SDS011;3784;54.098;9.998;2023-02-26T01:09:23;3.30;;;1.40;;
7485;SDS011;3784;54.098;9.998;2023-02-26T01:11:51;2.43;;;1.20;;
7485;SDS011;3784;54.098;9.998;2023-02-26T01:14:19;1.33;;;0.97;;
7485;SDS011;3784;54.098;9.998;2023-02-26T01:19:35;2.53;;;1.20;;
7485;SDS011;3784;54.098;9.998;2023-02-26T01:24:47;3.17;;;1.37;;
7485;SDS011;3784;54.098;9.998;2023-02-26T01:27:15;3.67;;;1.20;;
7485;SDS011;3784;54.098;9.998;2023-02-26T01:29:42;4.00;;;1.40;;
7485;SDS011;3784;54.098;9.998;2023-02-26T01:35:00;3.20;;;1.20;;
7485;SDS011;3784;54.098;9.998;2023-02-26T01:37:37;3.30;;;1.10;;
7485;SDS011;3784;54.098;9.998;2023-02-26T01:42:53;6.07;;;1.53;;
7485;SDS011;3784;54.098;9.998;2023-02-26T01:45:25;2.70;;;1.30;;
7485;SDS011;3784;54.098;9.998;2023-02-26T01:50:34;1.77;;;1.20;;
7485;SDS011;3784;54.098;9.998;2023-02-26T01:53:20;2.70;;;1.23;;
7485;SDS011;3784;54.098;9.998;2023-02-26T01:56:03;1.57;;;1.10;;
7485;SDS011;3784;54.098;9.998;2023-02-26T01:58:34;2.07;;;1.30;;
7485;SDS011;3784;54.098;9.998;2023-02-26T02:01:02;2.77;;;1.20;;
7485;SDS011;3784;54.098;9.998;2023-02-26T02:06:04;3.70;;;1.30;;
7485;SDS011;3784;54.098;9.998;2023-02-26T02:08:33;1.70;;;1.17;;
7485;SDS011;3784;54.098;9.998;2023-02-26T02:11:02;2.50;;;1.30;;
7485;SDS011;3784;54.098;9.998;2023-02-26T02:13:50;2.53;;;1.37;;
7485;SDS011;3784;54.098;9.998;2023-02-26T02:19:39;4.10;;;1.50;;
7485;SDS011;3784;54.098;9.998;2023-02-26T02:25:07;3.53;;;1.37;;
7485;SDS011;3784;54.098;9.998;2023-02-26T02:33:17;5.33;;;1.70;;
7485;SDS011;3784;54.098;9.998;2023-02-26T02:35:52;1.80;;;1.20;;
7485;SDS011;3784;54.098;9.998;2023-02-26T02:38:25;2.90;;;1.10;;
7485;SDS011;3784;54.098;9.998;2023-02-26T02:41:01;1.33;;;1.10;;
7485;SDS011;3784;54.098;9.998;2023-02-26T02:43:32;7.20;;;1.53;;
7485;SDS011;3784;54.098;9.998;2023-02-26T02:46:02;3.97;;;1.60;;
7485;SDS011;3784;54.098;9.998;2023-02-26T02:48:32;2.40;;;1.33;;
7485;SDS011;3784;54.098;9.998;2023-02-26T02:51:02;5.43;;;1.50;;
7485;SDS011;3784;54.098;9.998;2023-02-26T02:53:36;2.23;;;1.23;;
7485;SDS011;3784;54.098;9.998;2023-02-26T02:56:06;3.27;;;1.60;;
7485;SDS011;3784;54.098;9.998;2023-02-26T02:58:38;5.77;;;1.70;;
7485;SDS011;3784;54.098;9.998;2023-02-26T03:01:08;2.70;;;1.27;;
7485;SDS011;3784;54.098;9.998;2023-02-26T03:03:44;2.60;;;1.40;;
7485;SDS011;3784;54.098;9.998;2023-02-26T03:06:15;3.10;;;1.40;;
7485;SDS011;3784;54.098;9.998;2023-02-26T03:08:43;1.83;;;1.30;;
7485;SDS011;3784;54.098;9.998;2023-02-26T03:11:10;4.90;;;1.60;;
7485;SDS011;3784;54.098;9.998;2023-02-26T03:13:37;3.07;;;1.50;;
7485;SDS011;3784;54.098;9.998;2023-02-26T03:21:09;3.00;;;1.50;;
7485;SDS011;3784;54.098;9.998;2023-02-26T03:23:39;5.60;;;1.77;;
7485;SDS011;3784;54.098;9.998;2023-02-26T03:26:13;2.40;;;1.40;;
7485;SDS011;3784;54.098;9.998;2023-02-26T03:34:50;4.10;;;1.67;;
7485;SDS011;3784;54.098;9.998;2023-02-26T03:40:08;3.07;;;1.57;;
7485;SDS011;3784;54.098;9.998;2023-02-26T03:42:45;3.37;;;1.50;;
7485;SDS011;3784;54.098;9.998;2023-02-26T03:45:22;4.47;;;1.80;;
7485;SDS011;3784;54.098;9.998;2023-02-26T03:47:54;4.17;;;1.50;;
7485;SDS011;3784;54.098;9.998;2023-02-26T03:50:27;3.63;;;1.73;;
7485;SDS011;3784;54.098;9.998;2023-02-26T03:52:57;3.47;;;1.60;;
7485;SDS011;3784;54.098;9.998;2023-02-26T03:55:31;1.47;;;1.37;;
7485;SDS011;3784;54.098;9.998;2023-02-26T03:58:00;5.13;;;2.00;;
7485;SDS011;3784;54.098;9.998;2023-02-26T04:00:27;3.67;;;1.67;;
7485;SDS011;3784;54.098;9.998;2023-02-26T04:02:58;4.10;;;1.50;;
7485;SDS011;3784;54.098;9.998;2023-02-26T04:05:28;5.90;;;2.00;;
7485;SDS011;3784;54.098;9.998;2023-02-26T04:07:58;4.10;;;1.80;;
7485;SDS011;3784;54.098;9.998;2023-02-26T04:10:30;4.20;;;1.60;;
7485;SDS011;3784;54.098;9.998;2023-02-26T04:13:03;4.60;;;1.93;;
7485;SDS011;3784;54.098;9.998;2023-02-26T04:15:30;2.53;;;1.57;;
7485;SDS011;3784;54.098;9.998;2023-02-26T04:17:56;3.03;;;1.50;;
7485;SDS011;3784;54.098;9.998;2023-02-26T04:20:22;6.10;;;1.77;;
7485;SDS011;3784;54.098;9.998;2023-02-26T04:22:49;3.10;;;1.40;;
7485;SDS011;3784;54.098;9.998;2023-02-26T04:25:16;2.70;;;1.30;;
7485;SDS011;3784;54.098;9.998;2023-02-26T04:27:42;4.97;;;1.70;;
7485;SDS011;3784;54.098;9.998;2023-02-26T04:30:09;5.10;;;1.60;;
7485;SDS011;3784;54.098;9.998;2023-02-26T04:32:36;3.27;;;1.30;;
7485;SDS011;3784;54.098;9.998;2023-02-26T04:35:02;3.37;;;1.40;;
7485;SDS011;3784;54.098;9.998;2023-02-26T04:37:29;2.37;;;1.50;;
7485;SDS011;3784;54.098;9.998;2023-02-26T04:39:56;1.90;;;1.50;;
7485;SDS011;3784;54.098;9.998;2023-02-26T04:42:22;6.00;;;1.60;;
7485;SDS011;3784;54.098;9.998;2023-02-26T04:44:49;4.73;;;1.57;;
7485;SDS011;3784;54.098;9.998;2023-02-26T04:47:15;4.10;;;1.83;;
7485;SDS011;3784;54.098;9.998;2023-02-26T04:49:43;4.27;;;1.50;;
7485;SDS011;3784;54.098;9.998;2023-02-26T04:52:09;3.53;;;1.93;;
7485;SDS011;3784;54.098;9.998;2023-02-26T04:54:36;3.73;;;1.57;;
7485;SDS011;3784;54.098;9.998;2023-02-26T04:57:03;2.50;;;1.70;;
7485;SDS011;3784;54.098;9.998;2023-02-26T04:59:29;4.87;;;1.57;;
7485;SDS011;3784;54.098;9.998;2023-02-26T05:01:56;4.07;;;1.77;;
7485;SDS011;3784;54.098;9.998;2023-02-26T05:04:22;3.47;;;1.83;;
7485;SDS011;3784;54.098;9.998;2023-02-26T05:06:49;4.50;;;1.90;;
7485;SDS011;3784;54.098;9.998;2023-02-26T05:09:15;3.33;;;1.53;;
7485;SDS011;3784;54.098;9.998;2023-02-26T05:11:42;4.57;;;1.80;;
7485;SDS011;3784;54.098;9.998;2023-02-26T05:14:08;3.83;;;1.73;;
7485;SDS011;3784;54.098;9.998;2023-02-26T05:16:35;3.30;;;1.67;;
7485;SDS011;3784;54.098;9.998;2023-02-26T05:19:01;4.03;;;1.60;;
7485;SDS011;3784;54.098;9.998;2023-02-26T05:21:28;3.67;;;1.40;;
7485;SDS011;3784;54.098;9.998;2023-02-26T05:23:54;3.57;;;1.47;;
7485;SDS011;3784;54.098;9.998;2023-02-26T05:26:21;3.43;;;1.67;;
7485;SDS011;3784;54.098;9.998;2023-02-26T05:28:48;3.93;;;1.63;;
7485;SDS011;3784;54.098;9.998;2023-02-26T05:31:14;2.53;;;1.80;;
7485;SDS011;3784;54.098;9.998;2023-02-26T05:33:41;3.13;;;1.57;;
7485;SDS011;3784;54.098;9.998;2023-02-26T05:36:08;6.43;;;1.80;;
7485;SDS011;3784;54.098;9.998;2023-02-26T05:38:35;3.53;;;1.67;;
7485;SDS011;3784;54.098;9.998;2023-02-26T05:41:01;4.87;;;1.50;;
7485;SDS011;3784;54.098;9.998;2023-02-26T05:43:28;4.17;;;1.77;;
7485;SDS011;3784;54.098;9.998;2023-02-26T05:45:55;4.73;;;1.57;;
7485;SDS011;3784;54.098;9.998;2023-02-26T05:48:22;2.83;;;1.57;;
7485;SDS011;3784;54.098;9.998;2023-02-26T05:50:48;5.97;;;1.93;;
7485;SDS011;3784;54.098;9.998;2023-02-26T05:53:15;5.30;;;1.90;;
7485;SDS011;3784;54.098;9.998;2023-02-26T05:55:42;3.93;;;2.23;;
7485;SDS011;3784;54.098;9.998;2023-02-26T05:58:08;4.60;;;1.70;;
7485;SDS011;3784;54.098;9.998;2023-02-26T06:00:35;5.73;;;2.00;;
7485;SDS011;3784;54.098;9.998;2023-02-26T06:03:01;3.17;;;1.80;;
7485;SDS011;3784;54.098;9.998;2023-02-26T06:05:28;5.23;;;2.00;;
7485;SDS011;3784;54.098;9.998;2023-02-26T06:07:54;6.20;;;2.67;;
7485;SDS011;3784;54.098;9.998;2023-02-26T06:10:21;4.77;;;2.00;;
7485;SDS011;3784;54.098;9.998;2023-02-26T06:12:47;4.27;;;1.87;;
7485;SDS011;3784;54.098;9.998;2023-02-26T06:15:14;5.00;;;2.03;;
7485;SDS011;3784;54.098;9.998;2023-02-26T06:17:41;3.50;;;1.90;;
7485;SDS011;3784;54.098;9.998;2023-02-26T06:20:08;4.60;;;2.43;;
7485;SDS011;3784;54.098;9.998;2023-02-26T06:22:35;4.70;;;2.00;;
7485;SDS011;3784;54.098;9.998;2023-02-26T06:25:01;3.10;;;1.83;;
7485;SDS011;3784;54.098;9.998;2023-02-26T06:27:28;3.37;;;1.87;;
7485;SDS011;3784;54.098;9.998;2023-02-26T06:29:55;3.67;;;1.90;;
7485;SDS011;3784;54.098;9.998;2023-02-26T06:32:21;6.27;;;2.40;;
7485;SDS011;3784;54.098;9.998;2023-02-26T06:34:48;4.10;;;2.47;;
7485;SDS011;3784;54.098;9.998;2023-02-26T06:37:14;4.73;;;2.43;;
7485;SDS011;3784;54.098;9.998;2023-02-26T06:39:41;6.43;;;2.00;;
7485;SDS011;3784;54.098;9.998;2023-02-26T06:42:08;4.20;;;2.07;;
7485;SDS011;3784;54.098;9.998;2023-02-26T06:44:34;3.53;;;2.10;;
7485;SDS011;3784;54.098;9.998;2023-02-26T06:47:01;6.27;;;1.97;;
7485;SDS011;3784;54.098;9.998;2023-02-26T06:49:27;3.67;;;1.90;;
7485;SDS011;3784;54.098;9.998;2023-02-26T06:51:54;5.30;;;2.43;;
7485;SDS011;3784;54.098;9.998;2023-02-26T06:54:20;4.13;;;2.53;;
7485;SDS011;3784;54.098;9.998;2023-02-26T06:56:47;4.77;;;2.20;;
7485;SDS011;3784;54.098;9.998;2023-02-26T06:59:13;4.50;;;2.77;;
7485;SDS011;3784;54.098;9.998;2023-02-26T07:01:40;7.17;;;2.20;;
7485;SDS011;3784;54.098;9.998;2023-02-26T07:04:07;4.60;;;2.10;;
7485;SDS011;3784;54.098;9.998;2023-02-26T07:06:33;3.57;;;1.90;;
7485;SDS011;3784;54.098;9.998;2023-02-26T07:09:00;3.57;;;2.13;;
7485;SDS011;3784;54.098;9.998;2023-02-26T07:11:26;3.40;;;2.03;;
7485;SDS011;3784;54.098;9.998;2023-02-26T07:13:53;5.07;;;2.17;;
7485;SDS011;3784;54.098;9.998;2023-02-26T07:16:20;3.23;;;1.93;;
7485;SDS011;3784;54.098;9.998;2023-02-26T07:18:47;3.50;;;2.07;;
7485;SDS011;3784;54.098;9.998;2023-02-26T07:21:13;5.67;;;2.00;;
7485;SDS011;3784;54.098;9.998;2023-02-26T07:23:40;5.83;;;2.40;;
7485;SDS011;3784;54.098;9.998;2023-02-26T07:26:06;3.80;;;2.50;;
7485;SDS011;3784;54.098;9.998;2023-02-26T07:28:34;7.67;;;2.53;;
7485;SDS011;3784;54.098;9.998;2023-02-26T07:31:00;6.10;;;2.67;;
7485;SDS011;3784;54.098;9.998;2023-02-26T07:33:27;5.23;;;2.70;;
7485;SDS011;3784;54.098;9.998;2023-02-26T07:35:54;4.63;;;2.50;;
7485;SDS011;3784;54.098;9.998;2023-02-26T07:38:20;7.37;;;2.77;;
7485;SDS011;3784;54.098;9.998;2023-02-26T07:40:47;4.37;;;2.17;;
7485;SDS011;3784;54.098;9.998;2023-02-26T07:43:13;4.13;;;2.30;;
7485;SDS011;3784;54.098;9.998;2023-02-26T07:45:40;5.20;;;2.30;;
7485;SDS011;3784;54.098;9.998;2023-02-26T07:48:06;4.60;;;2.40;;
7485;SDS011;3784;54.098;9.998;2023-02-26T07:50:33;7.10;;;2.73;;
7485;SDS011;3784;54.098;9.998;2023-02-26T07:52:59;5.10;;;2.70;;
7485;SDS011;3784;54.098;9.998;2023-02-26T07:55:26;4.90;;;2.80;;
7485;SDS011;3784;54.098;9.998;2023-02-26T07:57:53;3.23;;;2.50;;
7485;SDS011;3784;54.098;9.998;2023-02-26T08:00:19;3.93;;;2.40;;
7485;SDS011;3784;54.098;9.998;2023-02-26T08:02:46;3.80;;;2.43;;
7485;SDS011;3784;54.098;9.998;2023-02-26T08:05:13;4.57;;;2.90;;
7485;SDS011;3784;54.098;9.998;2023-02-26T08:07:39;5.63;;;2.27;;
7485;SDS011;3784;54.098;9.998;2023-02-26T08:10:06;5.17;;;3.17;;
7485;SDS011;3784;54.098;9.998;2023-02-26T08:12:33;5.50;;;3.20;;
7485;SDS011;3784;54.098;9.998;2023-02-26T08:14:59;6.03;;;2.83;;
7485;SDS011;3784;54.098;9.998;2023-02-26T08:17:26;5.17;;;2.57;;
7485;SDS011;3784;54.098;9.998;2023-02-26T08:19:52;3.33;;;1.87;;
7485;SDS011;3784;54.098;9.998;2023-02-26T08:22:19;4.03;;;2.37;;
7485;SDS011;3784;54.098;9.998;2023-02-26T08:24:46;4.60;;;2.30;;
7485;SDS011;3784;54.098;9.998;2023-02-26T08:27:12;3.90;;;2.17;;
7485;SDS011;3784;54.098;9.998;2023-02-26T08:29:39;4.27;;;2.27;;
7485;SDS011;3784;54.098;9.998;2023-02-26T08:32:05;5.97;;;3.43;;
7485;SDS011;3784;54.098;9.998;2023-02-26T08:34:32;6.83;;;2.93;;
7485;SDS011;3784;54.098;9.998;2023-02-26T08:36:58;5.47;;;2.53;;
7485;SDS011;3784;54.098;9.998;2023-02-26T08:39:25;5.57;;;2.60;;
7485;SDS011;3784;54.098;9.998;2023-02-26T08:41:51;4.33;;;2.00;;
7485;SDS011;3784;54.098;9.998;2023-02-26T08:44:18;4.47;;;2.30;;
7485;SDS011;3784;54.098;9.998;2023-02-26T08:46:44;6.43;;;2.37;;
7485;SDS011;3784;54.098;9.998;2023-02-26T08:49:11;3.37;;;2.43;;
7485;SDS011;3784;54.098;9.998;2023-02-26T08:51:37;4.60;;;2.53;;
7485;SDS011;3784;54.098;9.998;2023-02-26T08:54:04;3.63;;;2.50;;
7485;SDS011;3784;54.098;9.998;2023-02-26T08:56:30;3.87;;;2.10;;
7485;SDS011;3784;54.098;9.998;2023-02-26T08:58:57;5.03;;;2.80;;
7485;SDS011;3784;54.098;9.998;2023-02-26T09:01:23;5.50;;;3.40;;
7485;SDS011;3784;54.098;9.998;2023-02-26T09:03:50;5.73;;;3.63;;
7485;SDS011;3784;54.098;9.998;2023-02-26T09:06:17;6.90;;;3.80;;
7485;SDS011;3784;54.098;9.998;2023-02-26T09:08:43;9.90;;;5.27;;
7485;SDS011;3784;54.098;9.998;2023-02-26T09:11:10;10.17;;;4.77;;
7485;SDS011;3784;54.098;9.998;2023-02-26T09:13:37;11.07;;;4.90;;
7485;SDS011;3784;54.098;9.998;2023-02-26T09:16:04;7.83;;;4.60;;
7485;SDS011;3784;54.098;9.998;2023-02-26T09:18:30;10.50;;;5.10;;
7485;SDS011;3784;54.098;9.998;2023-02-26T09:20:57;6.97;;;4.10;;
7485;SDS011;3784;54.098;9.998;2023-02-26T09:23:23;5.37;;;2.90;;
7485;SDS011;3784;54.098;9.998;2023-02-26T09:25:53;7.63;;;3.20;;
7485;SDS011;3784;54.098;9.998;2023-02-26T09:28:22;5.30;;;3.23;;
7485;SDS011;3784;54.098;9.998;2023-02-26T09:30:50;5.07;;;3.30;;
7485;SDS011;3784;54.098;9.998;2023-02-26T09:33:18;6.50;;;3.73;;
7485;SDS011;3784;54.098;9.998;2023-02-26T09:35:46;6.27;;;2.87;;
7485;SDS011;3784;54.098;9.998;2023-02-26T09:38:16;7.43;;;2.60;;
7485;SDS011;3784;54.098;9.998;2023-02-26T09:40:45;5.03;;;2.57;;
7485;SDS011;3784;54.098;9.998;2023-02-26T09:46:05;2.70;;;2.20;;
7485;SDS011;3784;54.098;9.998;2023-02-26T09:48:47;4.60;;;2.10;;
7485;SDS011;3784;54.098;9.998;2023-02-26T09:51:17;3.13;;;2.03;;
7485;SDS011;3784;54.098;9.998;2023-02-26T09:53:45;4.30;;;2.10;;
7485;SDS011;3784;54.098;9.998;2023-02-26T09:56:15;7.47;;;2.03;;
7485;SDS011;3784;54.098;9.998;2023-02-26T09:58:43;3.20;;;1.80;;
7485;SDS011;3784;54.098;9.998;2023-02-26T10:09:12;5.57;;;2.33;;
7485;SDS011;3784;54.098;9.998;2023-02-26T10:12:17;7.37;;;2.10;;
7485;SDS011;3784;54.098;9.998;2023-02-26T10:17:18;2.63;;;2.10;;
7485;SDS011;3784;54.098;9.998;2023-02-26T10:19:49;5.47;;;2.10;;
7485;SDS011;3784;54.098;9.998;2023-02-26T10:22:33;5.33;;;1.97;;
7485;SDS011;3784;54.098;9.998;2023-02-26T10:25:08;3.90;;;1.90;;
7485;SDS011;3784;54.098;9.998;2023-02-26T10:31:08;4.67;;;2.00;;
7485;SDS011;3784;54.098;9.998;2023-02-26T10:42:11;4.10;;;2.30;;
7485;SDS011;3784;54.098;9.998;2023-02-26T10:48:01;5.53;;;1.83;;
7485;SDS011;3784;54.098;9.998;2023-02-26T10:50:54;4.07;;;1.87;;
7485;SDS011;3784;54.098;9.998;2023-02-26T10:53:23;2.37;;;1.63;;
7485;SDS011;3784;54.098;9.998;2023-02-26T10:56:06;3.03;;;1.87;;
7485;SDS011;3784;54.098;9.998;2023-02-26T10:59:05;3.50;;;1.80;;
7485;SDS011;3784;54.098;9.998;2023-02-26T11:01:43;4.93;;;1.70;;
7485;SDS011;3784;54.098;9.998;2023-02-26T11:04:31;1.80;;;1.53;;
7485;SDS011;3784;54.098;9.998;2023-02-26T11:06:59;4.27;;;1.80;;
7485;SDS011;3784;54.098;9.998;2023-02-26T11:09:37;4.70;;;2.20;;
7485;SDS011;3784;54.098;9.998;2023-02-26T11:14:41;4.67;;;2.07;;
7485;SDS011;3784;54.098;9.998;2023-02-26T11:17:16;3.80;;;1.80;;
7485;SDS011;3784;54.098;9.998;2023-02-26T11:19:58;5.70;;;1.67;;
7485;SDS011;3784;54.098;9.998;2023-02-26T11:22:33;5.43;;;2.03;;
7485;SDS011;3784;54.098;9.998;2023-02-26T11:25:05;3.70;;;1.80;;
7485;SDS011;3784;54.098;9.998;2023-02-26T11:27:43;3.97;;;1.90;;
7485;SDS011;3784;54.098;9.998;2023-02-26T11:30:16;6.27;;;1.97;;
7485;SDS011;3784;54.098;9.998;2023-02-26T11:32:56;7.27;;;1.83;;
7485;SDS011;3784;54.098;9.998;2023-02-26T11:35:28;7.47;;;1.90;;
7485;SDS011;3784;54.098;9.998;2023-02-26T11:38:07;4.77;;;1.83;;
7485;SDS011;3784;54.098;9.998;2023-02-26T11:40:45;3.20;;;1.60;;
7485;SDS011;3784;54.098;9.998;2023-02-26T11:43:16;3.87;;;1.83;;
7485;SDS011;3784;54.098;9.998;2023-02-26T11:45:59;2.67;;;1.90;;
7485;SDS011;3784;54.098;9.998;2023-02-26T11:51:18;2.07;;;1.40;;
7485;SDS011;3784;54.098;9.998;2023-02-26T11:53:57;5.77;;;2.10;;
7485;SDS011;3784;54.098;9.998;2023-02-26T11:56:38;6.43;;;2.30;;
7485;SDS011;3784;54.098;9.998;2023-02-26T12:02:11;2.93;;;1.70;;
7485;SDS011;3784;54.098;9.998;2023-02-26T12:04:44;5.77;;;2.03;;
7485;SDS011;3784;54.098;9.998;2023-02-26T12:07:19;4.97;;;2.60;;
7485;SDS011;3784;54.098;9.998;2023-02-26T12:09:53;5.20;;;1.83;;
7485;SDS011;3784;54.098;9.998;2023-02-26T12:26:50;2.60;;;1.40;;
7485;SDS011;3784;54.098;9.998;2023-02-26T12:29:31;5.93;;;2.00;;
7485;SDS011;3784;54.098;9.998;2023-02-26T12:32:50;4.20;;;1.60;;
7485;SDS011;3784;54.098;9.998;2023-02-26T12:42:04;4.33;;;1.77;;
7485;SDS011;3784;54.098;9.998;2023-02-26T12:47:56;4.00;;;1.80;;
7485;SDS011;3784;54.098;9.998;2023-02-26T12:50:40;4.03;;;1.70;;
7485;SDS011;3784;54.098;9.998;2023-02-26T13:25:00;5.27;;;3.17;;
7485;SDS011;3784;54.098;9.998;2023-02-26T13:27:45;8.20;;;5.33;;
7485;SDS011;3784;54.098;9.998;2023-02-26T13:30:24;2.70;;;1.50;;
7485;SDS011;3784;54.098;9.998;2023-02-26T13:33:17;13.40;;;5.77;;
7485;SDS011;3784;54.098;9.998;2023-02-26T13:35:50;4.30;;;1.73;;
7485;SDS011;3784;54.098;9.998;2023-02-26T13:41:35;6.77;;;3.60;;
7485;SDS011;3784;54.098;9.998;2023-02-26T13:44:28;2.80;;;2.00;;
7485;SDS011;3784;54.098;9.998;2023-02-26T13:53:00;2.33;;;1.60;;
7485;SDS011;3784;54.098;9.998;2023-02-26T13:55:45;5.87;;;1.70;;
7485;SDS011;3784;54.098;9.998;2023-02-26T14:01:03;3.30;;;1.50;;
7485;SDS011;3784;54.098;9.998;2023-02-26T14:03:44;2.57;;;1.67;;
7485;SDS011;3784;54.098;9.998;2023-02-26T14:06:34;2.00;;;1.33;;
7485;SDS011;3784;54.098;9.998;2023-02-26T14:20:14;2.43;;;1.50;;
7485;SDS011;3784;54.098;9.998;2023-02-26T14:25:53;1.63;;;1.20;;
7485;SDS011;3784;54.098;9.998;2023-02-26T14:33:57;4.73;;;1.87;;
7485;SDS011;3784;54.098;9.998;2023-02-26T14:37:00;4.90;;;1.77;;
7485;SDS011;3784;54.098;9.998;2023-02-26T14:39:39;4.53;;;1.93;;
7485;SDS011;3784;54.098;9.998;2023-02-26T14:42:12;1.70;;;1.40;;
7485;SDS011;3784;54.098;9.998;2023-02-26T14:45:40;3.37;;;1.23;;
7485;SDS011;3784;54.098;9.998;2023-02-26T14:48:04;2.70;;;1.80;;
7485;SDS011;3784;54.098;9.998;2023-02-26T14:50:39;3.87;;;1.67;;
7485;SDS011;3784;54.098;9.998;2023-02-26T14:53:34;4.30;;;2.77;;
7485;SDS011;3784;54.098;9.998;2023-02-26T15:04:45;2.80;;;1.40;;
7485;SDS011;3784;54.098;9.998;2023-02-26T15:07:46;2.43;;;1.50;;
7485;SDS011;3784;54.098;9.998;2023-02-26T15:11:01;4.23;;;1.53;;
7485;SDS011;3784;54.098;9.998;2023-02-26T15:24:55;5.80;;;1.47;;
7485;SDS011;3784;54.098;9.998;2023-02-26T15:27:30;3.87;;;1.43;;
7485;SDS011;3784;54.098;9.998;2023-02-26T15:30:12;3.40;;;1.70;;
7485;SDS011;3784;54.098;9.998;2023-02-26T15:32:44;5.70;;;2.03;;
7485;SDS011;3784;54.098;9.998;2023-02-26T15:35:17;2.80;;;1.40;;
7485;SDS011;3784;54.098;9.998;2023-02-26T15:37:53;1.53;;;1.30;;
7485;SDS011;3784;54.098;9.998;2023-02-26T15:40:30;4.77;;;1.93;;
7485;SDS011;3784;54.098;9.998;2023-02-26T15:43:26;3.60;;;1.50;;
7485;SDS011;3784;54.098;9.998;2023-02-26T15:46:02;5.33;;;3.57;;
7485;SDS011;3784;54.098;9.998;2023-02-26T15:48:34;4.33;;;3.63;;
7485;SDS011;3784;54.098;9.998;2023-02-26T15:51:10;3.40;;;1.50;;
7485;SDS011;3784;54.098;9.998;2023-02-26T15:53:50;5.37;;;1.50;;
7485;SDS011;3784;54.098;9.998;2023-02-26T15:56:25;3.30;;;1.30;;
7485;SDS011;3784;54.098;9.998;2023-02-26T15:59:12;2.77;;;1.50;;
7485;SDS011;3784;54.098;9.998;2023-02-26T16:01:43;5.17;;;1.30;;
7485;SDS011;3784;54.098;9.998;2023-02-26T16:04:18;4.13;;;1.73;;
7485;SDS011;3784;54.098;9.998;2023-02-26T16:06:55;2.47;;;1.40;;
7485;SDS011;3784;54.098;9.998;2023-02-26T16:09:34;3.60;;;1.73;;
7485;SDS011;3784;54.098;9.998;2023-02-26T16:12:11;4.73;;;1.70;;
7485;SDS011;3784;54.098;9.998;2023-02-26T16:14:51;2.10;;;1.53;;
7485;SDS011;3784;54.098;9.998;2023-02-26T16:17:37;5.20;;;1.70;;
7485;SDS011;3784;54.098;9.998;2023-02-26T16:20:18;3.00;;;1.73;;
7485;SDS011;3784;54.098;9.998;2023-02-26T16:23:06;1.97;;;1.30;;
7485;SDS011;3784;54.098;9.998;2023-02-26T16:25:49;3.17;;;1.80;;
7485;SDS011;3784;54.098;9.998;2023-02-26T16:28:31;2.33;;;1.40;;
7485;SDS011;3784;54.098;9.998;2023-02-26T16:31:02;4.27;;;2.00;;
7485;SDS011;3784;54.098;9.998;2023-02-26T16:33:35;4.50;;;2.17;;
7485;SDS011;3784;54.098;9.998;2023-02-26T16:36:12;4.17;;;2.27;;
7485;SDS011;3784;54.098;9.998;2023-02-26T16:38:43;6.30;;;2.90;;
7485;SDS011;3784;54.098;9.998;2023-02-26T16:41:12;3.60;;;2.10;;
7485;SDS011;3784;54.098;9.998;2023-02-26T16:46:38;3.20;;;2.00;;
7485;SDS011;3784;54.098;9.998;2023-02-26T16:49:23;4.20;;;2.50;;
7485;SDS011;3784;54.098;9.998;2023-02-26T16:52:04;5.37;;;2.43;;
7485;SDS011;3784;54.098;9.998;2023-02-26T16:54:53;4.53;;;2.23;;
7485;SDS011;3784;54.098;9.998;2023-02-26T16:57:44;4.10;;;2.37;;
7485;SDS011;3784;54.098;9.998;2023-02-26T17:00:24;3.63;;;2.53;;
7485;SDS011;3784;54.098;9.998;2023-02-26T17:03:05;6.37;;;2.73;;
7485;SDS011;3784;54.098;9.998;2023-02-26T17:05:40;4.30;;;3.10;;
7485;SDS011;3784;54.098;9.998;2023-02-26T17:10:43;6.00;;;4.70;;
7485;SDS011;3784;54.098;9.998;2023-02-26T17:13:16;6.27;;;4.00;;
7485;SDS011;3784;54.098;9.998;2023-02-26T17:15:57;5.33;;;2.90;;
7485;SDS011;3784;54.098;9.998;2023-02-26T17:18:32;5.67;;;3.20;;
7485;SDS011;3784;54.098;9.998;2023-02-26T17:20:59;3.80;;;3.20;;
7485;SDS011;3784;54.098;9.998;2023-02-26T17:23:35;8.30;;;3.83;;
7485;SDS011;3784;54.098;9.998;2023-02-26T17:26:12;7.87;;;3.80;;
7485;SDS011;3784;54.098;9.998;2023-02-26T17:28:40;6.23;;;3.93;;
7485;SDS011;3784;54.098;9.998;2023-02-26T17:31:10;6.93;;;5.00;;
7485;SDS011;3784;54.098;9.998;2023-02-26T17:33:39;8.67;;;5.57;;
7485;SDS011;3784;54.098;9.998;2023-02-26T17:36:11;10.77;;;7.00;;
7485;SDS011;3784;54.098;9.998;2023-02-26T17:38:44;8.93;;;6.20;;
7485;SDS011;3784;54.098;9.998;2023-02-26T17:41:14;12.10;;;7.13;;
7485;SDS011;3784;54.098;9.998;2023-02-26T17:43:43;15.40;;;8.93;;
7485;SDS011;3784;54.098;9.998;2023-02-26T17:46:10;31.17;;;22.63;;
7485;SDS011;3784;54.098;9.998;2023-02-26T17:48:37;12.20;;;8.77;;
7485;SDS011;3784;54.098;9.998;2023-02-26T17:51:04;14.27;;;10.30;;
7485;SDS011;3784;54.098;9.998;2023-02-26T17:53:32;14.73;;;9.50;;
7485;SDS011;3784;54.098;9.998;2023-02-26T17:56:10;15.80;;;11.70;;
7485;SDS011;3784;54.098;9.998;2023-02-26T17:58:37;18.50;;;14.57;;
7485;SDS011;3784;54.098;9.998;2023-02-26T18:01:04;16.30;;;13.17;;
7485;SDS011;3784;54.098;9.998;2023-02-26T18:03:31;17.80;;;11.40;;
7485;SDS011;3784;54.098;9.998;2023-02-26T18:05:58;12.03;;;9.87;;
7485;SDS011;3784;54.098;9.998;2023-02-26T18:08:26;13.03;;;9.03;;
7485;SDS011;3784;54.098;9.998;2023-02-26T18:10:58;13.20;;;9.50;;
7485;SDS011;3784;54.098;9.998;2023-02-26T18:13:25;10.70;;;8.00;;
7485;SDS011;3784;54.098;9.998;2023-02-26T18:15:52;11.27;;;7.27;;
7485;SDS011;3784;54.098;9.998;2023-02-26T18:18:20;7.80;;;5.57;;
7485;SDS011;3784;54.098;9.998;2023-02-26T18:20:47;9.67;;;5.10;;
7485;SDS011;3784;54.098;9.998;2023-02-26T18:23:14;7.17;;;4.83;;
7485;SDS011;3784;54.098;9.998;2023-02-26T18:25:45;11.10;;;5.10;;
7485;SDS011;3784;54.098;9.998;2023-02-26T18:28:15;7.23;;;5.13;;
7485;SDS011;3784;54.098;9.998;2023-02-26T18:30:43;6.40;;;5.07;;
7485;SDS011;3784;54.098;9.998;2023-02-26T18:33:10;12.00;;;5.43;;
7485;SDS011;3784;54.098;9.998;2023-02-26T18:35:37;8.30;;;5.43;;
7485;SDS011;3784;54.098;9.998;2023-02-26T18:38:11;8.07;;;4.73;;
7485;SDS011;3784;54.098;9.998;2023-02-26T18:40:39;8.57;;;5.07;;
7485;SDS011;3784;54.098;9.998;2023-02-26T18:43:06;7.50;;;4.87;;
7485;SDS011;3784;54.098;9.998;2023-02-26T18:45:35;5.70;;;4.13;;
7485;SDS011;3784;54.098;9.998;2023-02-26T18:48:01;5.90;;;4.17;;
7485;SDS011;3784;54.098;9.998;2023-02-26T18:50:29;5.60;;;4.70;;
7485;SDS011;3784;54.098;9.998;2023-02-26T18:52:55;5.47;;;4.90;;
7485;SDS011;3784;54.098;9.998;2023-02-26T18:55:22;7.10;;;5.37;;
7485;SDS011;3784;54.098;9.998;2023-02-26T18:57:48;7.63;;;5.40;;
7485;SDS011;3784;54.098;9.998;2023-02-26T19:00:15;6.30;;;4.80;;
7485;SDS011;3784;54.098;9.998;2023-02-26T19:02:42;5.57;;;4.80;;
7485;SDS011;3784;54.098;9.998;2023-02-26T19:05:10;10.43;;;6.60;;